Flight Track Log - Related Links

Times and Time Zones

All times are in EDT time to prevent confusion due to time zone crossing. See the N53NW flight status page for this flight to view local times or setup timezone preferences in your user account.

Time Position Orientation Groundspeed Altitude Reporting Facility
EDT Latitude Longitude Course Direction KTS MPH feet Rate Location/Type
Wed 05:28:58 PM 29.7847 -95.8992 170° South 222 255 800  Level Houston Center
Wed 05:29:41 PM 29.7464 -95.8917 170° South 209 241 2,100 1,737 Climbing Houston Center
Wed 05:30:14 PM 29.7342 -95.8628 116° Southeast 240 276 3,000 1,200 Climbing Houston Center
Wed 05:31:16 PM 29.7103 -95.7944 112° Southeast 232 267 4,000 1,065 Climbing Houston Center
Wed 05:32:18 PM 29.6756 -95.7069 115° Southeast 246 283 5,200 1,776 Climbing Houston Center
Wed 05:33:21 PM 29.6153 -95.6575 145° Southeast 279 321 7,700 2,400 Climbing Houston Center
Wed 05:34:23 PM 29.5475 -95.6092 148° Southeast 291 335 10,200 2,419 Climbing Houston Center
Wed 05:35:25 PM 29.5433 -95.5217 93° East 282 325 12,700 2,177 Climbing Houston Center
Wed 05:36:27 PM 29.6150 -95.4847 24° Northeast 289 333 14,700 1,597 Climbing Houston Center
Wed 05:37:29 PM 29.6983 -95.4653 11° North 301 346 16,000 629 Climbing Houston Center
Wed 05:38:31 PM 29.8089 -95.4533 North 328 377 16,000  Level Houston Center
Wed 05:39:33 PM 29.9025 -95.4500 North 333 383 16,000 484 Level Houston Center
Wed 05:40:35 PM 29.9936 -95.4467 North 329 379 17,000 968 Climbing Houston Center
Wed 05:41:37 PM 30.0833 -95.4456 North 325 374 18,000 484 Climbing Houston Center
Wed 05:42:39 PM 30.1753 -95.4444 North 327 376 18,000  Level Houston Center
Wed 05:43:42 PM 30.2706 -95.4436 360° North 336 387 18,000  Level Houston Center
Wed 05:44:44 PM 30.3847 -95.4428 360° North 340 391 18,000  Level Houston Center
Wed 05:45:46 PM 30.4803 -95.4389 North 342 394 18,000  Level Houston Center
Wed 05:46:48 PM 30.5758 -95.4369 North 343 395 18,000  Level Houston Center
Wed 05:47:50 PM 30.6708 -95.4344 North 343 395 18,000  Level Houston Center
Wed 05:48:52 PM 30.7694 -95.4414 357° North 351 404 18,000  Level Houston Center
Wed 05:49:54 PM 30.8619 -95.4756 342° North 351 404 18,000  Level Houston Center
Wed 05:50:56 PM 30.9536 -95.5147 340° North 352 405 18,000  Level Houston Center
Wed 05:51:58 PM 31.0561 -95.5728 334° Northwest 340 391 18,000  Level Houston Center
Wed 05:53:00 PM 31.1436 -95.6211 335° Northwest 345 397 18,000  Level Houston Center
Wed 05:54:02 PM 31.2306 -95.6703 334° Northwest 345 397 18,000  Level Houston Center
Wed 05:55:04 PM 31.3192 -95.7192 335° Northwest 350 403 18,000  Level Houston Center
Wed 05:56:06 PM 31.4058 -95.7683 334° Northwest 346 398 18,000  Level Houston Center
Wed 05:57:08 PM 31.4947 -95.8183 334° Northwest 350 403 18,000  Level Houston Center
Wed 05:58:10 PM 31.5814 -95.8678 334° Northwest 348 400 18,000 -333 Level Houston Center
Wed 05:58:56 PM 31.6494 -95.9319 321° Northwest 342 394 17,400 -1,019 Descending Fort Worth Center
Wed 05:59:56 PM 31.7211 -96.0042 319° Northwest 342 394 16,200 -1,200 Descending Fort Worth Center
Wed 06:00:56 PM 31.7886 -96.0739 319° Northwest 333 383 15,000 -1,250 Descending Fort Worth Center
Wed 06:01:56 PM 31.8583 -96.1439 320° Northwest 333 383 13,700 -1,150 Descending Fort Worth Center
Wed 06:02:56 PM 31.9194 -96.2067 319° Northwest 323 372 12,700 -1,100 Descending Fort Worth Center
Wed 06:03:56 PM 31.9869 -96.2769 319° Northwest 313 360 11,500 -1,200 Descending Fort Worth Center
Wed 06:04:56 PM 32.0522 -96.3422 320° Northwest 313 360 10,300 -1,200 Descending Fort Worth Center
Wed 06:05:56 PM 32.1111 -96.4053 318° Northwest 308 354 9,100 -1,200 Descending Fort Worth Center
Wed 06:06:56 PM 32.1722 -96.4661 320° Northwest 296 341 7,900 -1,450 Descending Fort Worth Center
Wed 06:07:56 PM 32.2353 -96.5342 318° Northwest 290 334 6,200 -950 Descending Fort Worth Center
Wed 06:08:56 PM 32.2836 -96.5903 316° Northwest 277 319 6,000 -100 Descending Fort Worth Center
Wed 06:09:56 PM 32.3386 -96.6658 311° West 271 312 6,000 -50 Level Fort Worth Center
Wed 06:10:56 PM 32.3869 -96.7269 313° West 271 312 5,900 -1,000 Descending Fort Worth Center
Wed 06:11:56 PM 32.4414 -96.7981 312° West 271 312 4,000 -950 Descending Fort Worth Center
Wed 06:12:56 PM 32.4836 -96.8544 312° West 265 305 4,000 -250 Level Fort Worth Center
Wed 06:13:56 PM 32.5339 -96.9256 310° West 254 292 3,500 -400 Descending Fort Worth Center
Wed 06:14:56 PM 32.5633 -96.9919 298° West 254 292 3,200 -750 Descending Fort Worth Center
Wed 06:15:56 PM 32.6033 -97.0656 303° West 248 285 2,000 -1,121 Descending Fort Worth Center
Wed 06:16:43 PM 32.6333 -97.0833 333° Northwest 129 148 1,200 2,000 Descending Dallas / Fort Worth TRACON
Wed 06:18:56 PM 32.6975 -97.1542 317° Northwest 157 181 8,000 2,114 Climbing Fort Worth Center
Wed 06:19:56 PM 32.7289 -97.1839 321° Northwest 157 181 8,000  Level Fort Worth Center

Login

Don't have an account? Register now (free) for customized features, flight alerts, and more!